Time;durP1;ratioP1;P1;durP2;ratioP2;P2;SDS_P1;SDS_P2;PMS_P1;PMS_P2;Temp;Humidity;BMP_temperature;BMP_pressure;BME280_temperature;BME280_humidity;BME280_pressure;Samples;Min_cycle;Max_cycle;Signal;HPM_P1;HPM_P2
2021/10/16 00:00:41;;;;;;;20.30;5.90;;;;;;;7.42;100.00;102160.91;5094640;28;20268;-55
2021/10/16 00:03:06;;;;;;;29.87;6.83;;;;;;;7.38;100.00;102164.81;5094392;28;20465;-54
2021/10/16 00:05:32;;;;;;;23.37;7.20;;;;;;;7.37;100.00;102164.97;5094261;28;20460;-52
2021/10/16 00:07:57;;;;;;;23.45;7.80;;;;;;;7.35;100.00;102161.59;5094433;28;20031;-51
2021/10/16 00:10:23;;;;;;;24.30;6.60;;;;;;;7.36;100.00;102165.94;5094125;28;20059;-50
2021/10/16 00:12:48;;;;;;;17.38;6.97;;;;;;;7.42;100.00;102170.72;5093088;28;20040;-50
2021/10/16 00:15:14;;;;;;;27.60;6.70;;;;;;;7.41;100.00;102166.38;5076111;28;20028;-50
2021/10/16 00:17:40;;;;;;;27.80;8.35;;;;;;;7.39;100.00;102166.50;5092761;28;20579;-48
2021/10/16 00:20:07;;;;;;;18.27;6.80;;;;;;;7.39;100.00;102160.34;5093942;28;20028;-51
2021/10/16 00:22:33;;;;;;;17.25;5.85;;;;;;;7.37;100.00;102175.59;5093814;28;20139;-49
2021/10/16 00:24:58;;;;;;;18.07;6.53;;;;;;;7.36;100.00;102158.81;5092882;28;20141;-49
2021/10/16 00:27:24;;;;;;;17.08;7.03;;;;;;;7.51;100.00;102164.53;5093867;28;20288;-51
2021/10/16 00:29:50;;;;;;;19.20;7.43;;;;;;;7.52;100.00;102166.22;5092781;28;20031;-54
2021/10/16 00:32:15;;;;;;;17.80;6.33;;;;;;;7.54;100.00;102164.25;5094352;28;20039;-51
2021/10/16 00:34:41;;;;;;;24.88;6.97;;;;;;;7.64;100.00;102163.41;5075514;28;20031;-51
2021/10/16 00:37:06;;;;;;;14.87;5.83;;;;;;;7.81;100.00;102159.97;5092896;28;20165;-50
2021/10/16 00:39:32;;;;;;;17.60;6.70;;;;;;;7.78;100.00;102165.59;5093916;28;20260;-53
2021/10/16 00:41:58;;;;;;;21.63;7.22;;;;;;;7.74;100.00;102149.09;5094219;28;20460;-49
2021/10/16 00:44:24;;;;;;;22.73;6.47;;;;;;;7.78;100.00;102148.78;5092475;28;20119;-51
2021/10/16 00:46:52;;;;;;;17.55;6.00;;;;;;;7.88;100.00;102155.78;5092416;28;20044;-48
2021/10/16 00:49:18;;;;;;;28.40;7.00;;;;;;;7.89;100.00;102149.47;5092217;28;20422;-51
2021/10/16 00:51:44;;;;;;;18.20;6.67;;;;;;;7.92;100.00;102155.47;5093563;28;20054;-50
2021/10/16 00:54:10;;;;;;;18.88;6.68;;;;;;;7.95;100.00;102144.53;5092197;28;20016;-54
2021/10/16 00:56:38;;;;;;;18.83;6.70;;;;;;;8.01;100.00;102146.59;5091852;28;20055;-54
2021/10/16 00:59:05;;;;;;;29.33;7.45;;;;;;;7.99;100.00;102140.56;5092028;28;20069;-54
2021/10/16 01:01:35;;;;;;;22.58;6.25;;;;;;;8.07;100.00;102145.19;5092061;28;20109;-50
2021/10/16 01:04:01;;;;;;;19.67;6.13;;;;;;;8.13;100.00;102153.44;5092469;28;20040;-54
2021/10/16 01:06:30;;;;;;;16.05;6.75;;;;;;;8.17;100.00;102151.28;5092121;28;20085;-54
2021/10/16 01:08:57;;;;;;;18.33;6.43;;;;;;;8.25;100.00;102147.91;5093520;28;20028;-54
2021/10/16 01:11:31;;;;;;;;;;;;;;;8.29;100.00;102146.59;5076312;28;20438;-54
2021/10/16 01:13:57;;;;;;;36.05;10.25;;;;;;;8.32;100.00;102147.16;5092202;28;20010;-54
2021/10/16 01:16:22;;;;;;;23.43;7.07;;;;;;;8.29;100.00;102146.59;5092374;28;20461;-50
2021/10/16 01:18:48;;;;;;;29.48;7.82;;;;;;;8.43;100.00;102143.47;5092974;28;20463;-52
2021/10/16 01:21:14;;;;;;;26.00;7.15;;;;;;;8.49;100.00;102146.50;5093067;28;20372;-49
2021/10/16 01:23:40;;;;;;;25.48;7.07;;;;;;;8.50;100.00;102138.41;5093248;28;20096;-53
2021/10/16 01:26:06;;;;;;;22.02;7.35;;;;;;;8.53;100.00;102147.91;5091622;28;20032;-51
2021/10/16 01:28:32;;;;;;;22.23;6.28;;;;;;;8.49;100.00;102135.84;5092059;28;20425;-52
2021/10/16 01:30:58;;;;;;;26.02;9.45;;;;;;;8.43;100.00;102132.78;5092136;28;20126;-53
2021/10/16 01:33:30;;;;;;;29.60;9.32;;;;;;;8.50;100.00;102138.41;5091704;28;20040;-50
2021/10/16 01:36:03;;;;;;;21.23;5.57;;;;;;;8.43;100.00;102132.78;5093132;28;20040;-53
2021/10/16 01:38:30;;;;;;;18.50;6.45;;;;;;;8.43;100.00;102131.97;5091709;28;20078;-51
2021/10/16 01:40:56;;;;;;;16.58;5.70;;;;;;;8.52;100.00;102130.25;5091185;28;20127;-54
2021/10/16 01:43:22;;;;;;;25.30;6.53;;;;;;;8.54;100.00;102128.28;5093792;28;20138;-57
2021/10/16 01:45:52;;;;;;;22.33;6.65;;;;;;;8.64;100.00;102126.38;5093885;28;20028;-54
2021/10/16 01:48:23;;;;;;;20.15;6.45;;;;;;;8.65;100.00;102135.22;5076010;28;20063;-53
2021/10/16 01:50:50;;;;;;;13.88;5.15;;;;;;;8.68;100.00;102129.59;5091596;28;20044;-50
2021/10/16 01:53:21;;;;;;;24.52;6.90;;;;;;;8.68;100.00;102127.75;5091911;28;20032;-52
2021/10/16 01:55:59;;;;;;;17.17;6.18;;;;;;;8.74;100.00;102127.13;5092168;28;20044;-54
2021/10/16 01:58:28;;;;;;;23.15;6.22;;;;;;;8.75;100.00;102125.31;5076000;28;20107;-55
2021/10/16 02:01:13;;;;;;;19.35;5.97;;;;;;;8.83;100.00;102133.41;5096242;28;20029;-55
2021/10/16 02:03:41;;;;;;;17.80;6.35;;;;;;;8.83;100.00;102128.06;5095690;28;20479;-54
2021/10/16 02:06:14;;;;;;;21.15;5.90;;;;;;;8.87;100.00;102123.28;5096171;28;20072;-52
2021/10/16 02:08:46;;;;;;;23.52;6.68;;;;;;;8.92;100.00;102141.50;5097135;28;20472;-56
2021/10/16 02:11:12;;;;;;;20.40;5.47;;;;;;;8.93;100.00;102132.50;5095481;28;20044;-49
2021/10/16 02:13:47;;;;;;;17.73;5.15;;;;;;;8.99;100.00;102135.38;5080173;28;20032;-54
2021/10/16 02:16:13;;;;;;;22.35;6.90;;;;;;;8.97;100.00;102125.88;5095376;28;20063;-53
2021/10/16 02:18:51;;;;;;;17.35;5.40;;;;;;;9.02;100.00;102137.78;5080695;28;20032;-52
2021/10/16 02:21:20;;;;;;;15.18;4.80;;;;;;;9.04;100.00;102130.44;5078532;28;20061;-51
2021/10/16 02:23:45;;;;;;;16.08;4.93;;;;;;;9.04;100.00;102130.44;5095439;28;20515;-53
2021/10/16 02:26:14;;;;;;;20.98;5.55;;;;;;;9.06;100.00;102132.94;5094925;28;20043;-51
2021/10/16 02:28:43;;;;;;;17.08;4.88;;;;;;;9.04;100.00;102130.44;5095544;28;20031;-57
2021/10/16 02:31:22;;;;;;;13.90;5.25;;;;;;;9.03;100.00;102127.91;5095586;28;20059;-49
2021/10/16 02:33:50;;;;;;;15.80;4.57;;;;;;;9.06;100.00;102132.94;5095118;28;20051;-53
2021/10/16 02:36:17;;;;;;;14.80;4.18;;;;;;;9.09;100.00;102132.63;5078239;28;20032;-52
2021/10/16 02:38:43;;;;;;;18.25;5.00;;;;;;;9.10;100.00;102142.31;5094839;28;20052;-48
2021/10/16 02:41:08;;;;;;;23.60;4.85;;;;;;;9.09;100.00;102134.47;5078836;28;20042;-54
2021/10/16 02:43:34;;;;;;;14.75;4.85;;;;;;;9.10;100.00;102133.47;5095156;28;20488;-52
2021/10/16 02:46:00;;;;;;;23.92;5.05;;;;;;;9.07;100.00;102133.78;5078254;28;20090;-53
2021/10/16 02:48:26;;;;;;;17.98;5.32;;;;;;;9.05;100.00;102131.25;5078024;28;20140;-55
2021/10/16 02:50:51;;;;;;;19.07;5.07;;;;;;;9.08;100.00;102130.97;5094776;28;20036;-49
2021/10/16 02:53:19;;;;;;;21.42;5.18;;;;;;;9.07;100.00;102131.13;5094771;28;20024;-51
2021/10/16 02:55:45;;;;;;;20.77;4.90;;;;;;;9.13;100.00;102136.69;5095059;28;20492;-52
2021/10/16 02:58:11;;;;;;;17.33;4.70;;;;;;;9.15;100.00;102129.38;5094840;28;20044;-49
2021/10/16 03:00:36;;;;;;;19.35;4.80;;;;;;;9.18;100.00;102139.72;5095012;28;20094;-53
2021/10/16 03:03:05;;;;;;;19.63;5.10;;;;;;;9.21;100.00;102135.91;5094723;28;20028;-54
2021/10/16 03:05:30;;;;;;;17.48;4.70;;;;;;;9.20;100.00;102136.88;5094360;28;20067;-54
2021/10/16 03:07:57;;;;;;;21.40;5.43;;;;;;;9.25;100.00;102142.63;5094676;28;20167;-54
2021/10/16 03:10:24;;;;;;;15.95;4.97;;;;;;;9.26;100.00;102144.31;5093494;28;20131;-54
2021/10/16 03:12:50;;;;;;;;;;;;;;;9.23;100.00;102146.44;5095053;28;20113;-53
2021/10/16 03:15:19;;;;;;;18.45;4.15;;;;;;;9.22;100.00;102150.91;5094337;28;19911;-52
2021/10/16 03:17:46;;;;;;;22.52;5.15;;;;;;;9.24;100.00;102140.94;5094360;28;20161;-54
2021/10/16 03:20:12;;;;;;;17.88;5.05;;;;;;;9.26;100.00;102143.44;5094906;28;20058;-50
2021/10/16 03:22:38;;;;;;;20.58;5.22;;;;;;;9.25;100.00;102142.63;5093896;28;20123;-53
2021/10/16 03:25:04;;;;;;;19.05;4.75;;;;;;;9.28;100.00;102139.66;5094261;28;20082;-54
2021/10/16 03:27:30;;;;;;;16.92;4.65;;;;;;;9.30;100.00;102136.81;5077719;28;20043;-50
2021/10/16 03:29:55;;;;;;;18.88;4.97;;;;;;;9.27;100.00;102132.63;5094091;28;20036;-54
2021/10/16 03:32:21;;;;;;;16.95;4.30;;;;;;;9.29;100.00;102138.66;5094640;28;20044;-50
2021/10/16 03:34:46;;;;;;;14.67;4.30;;;;;;;9.29;100.00;102127.13;5093845;28;20381;-53
2021/10/16 03:37:12;;;;;;;16.97;4.63;;;;;;;9.31;100.00;102135.81;5077090;28;20052;-52
2021/10/16 03:39:38;;;;;;;18.73;4.90;;;;;;;9.31;100.00;102130.47;5094630;28;20036;-53
2021/10/16 03:42:05;;;;;;;24.05;5.80;;;;;;;9.28;100.00;102139.66;5093816;28;20051;-51
2021/10/16 03:44:33;;;;;;;13.20;4.65;;;;;;;9.23;100.00;102130.41;5093699;28;20032;-51
2021/10/16 03:47:00;;;;;;;18.05;4.43;;;;;;;9.31;100.00;102130.47;5093790;28;20035;-51
2021/10/16 03:49:25;;;;;;;20.07;5.47;;;;;;;9.33;100.00;102125.81;5093969;28;20036;-51
2021/10/16 03:51:51;;;;;;;19.70;4.63;;;;;;;9.32;100.00;102122.31;5095005;28;20024;-54
2021/10/16 03:54:17;;;;;;;17.17;4.70;;;;;;;9.33;100.00;102124.00;5095010;28;20032;-51
2021/10/16 03:56:43;;;;;;;18.98;5.20;;;;;;;9.33;100.00;102128.47;5093695;28;20028;-51
2021/10/16 03:59:08;;;;;;;17.03;4.70;;;;;;;9.30;100.00;102121.63;5094361;28;20423;-51
2021/10/16 04:01:34;;;;;;;18.38;4.60;;;;;;;9.34;100.00;102122.16;5076819;28;20745;-53
2021/10/16 04:04:00;;;;;;;20.33;4.70;;;;;;;9.36;100.00;102120.19;5076460;28;20149;-53
2021/10/16 04:06:26;;;;;;;21.00;4.87;;;;;;;9.39;100.00;102119.03;5094194;28;20032;-48
2021/10/16 04:08:52;;;;;;;20.90;5.47;;;;;;;9.36;100.00;102122.00;5076455;28;20263;-53
2021/10/16 04:11:21;;;;;;;15.27;4.63;;;;;;;9.36;100.00;102125.53;5093275;28;20039;-50
2021/10/16 04:13:46;;;;;;;22.63;5.43;;;;;;;9.34;100.00;102124.81;5094506;28;20024;-51
2021/10/16 04:16:12;;;;;;;21.65;5.03;;;;;;;9.40;100.00;102126.88;5093749;28;20466;-53
2021/10/16 04:18:37;;;;;;;17.10;5.07;;;;;;;9.41;100.00;102133.91;5076702;28;20031;-54
2021/10/16 04:21:03;;;;;;;23.80;4.60;;;;;;;9.42;100.00;102118.69;5093029;28;20379;-53
2021/10/16 04:23:28;;;;;;;21.73;4.27;;;;;;;9.46;100.00;102130.78;5075766;28;20059;-52
2021/10/16 04:25:54;;;;;;;25.10;7.37;;;;;;;9.48;100.00;102128.78;5094754;28;20292;-51
2021/10/16 04:28:20;;;;;;;27.48;5.47;;;;;;;9.43;100.00;102125.72;5093141;28;20024;-51
2021/10/16 04:31:08;;;;;;;21.52;5.03;;;;;;;9.44;100.00;102124.72;5068370;28;20084;-53
2021/10/16 04:33:34;;;;;;;20.60;5.27;;;;;;;9.43;100.00;102128.38;5092929;28;20032;-49
2021/10/16 04:36:01;;;;;;;14.97;4.60;;;;;;;9.44;100.00;102122.06;5092812;28;20055;-53
2021/10/16 04:38:26;;;;;;;18.97;5.00;;;;;;;9.49;100.00;102121.59;5093120;28;20048;-47
2021/10/16 04:40:52;;;;;;;12.93;4.20;;;;;;;9.46;100.00;102122.75;5092797;28;20607;-49
2021/10/16 04:43:17;;;;;;;18.15;4.68;;;;;;;9.46;100.00;102125.44;5059502;28;20131;-49
2021/10/16 04:45:45;;;;;;;15.00;4.30;;;;;;;9.43;100.00;102126.56;5093980;28;20429;-49
2021/10/16 04:48:12;;;;;;;13.77;4.90;;;;;;;9.42;100.00;102127.56;5076884;28;20348;-48
2021/10/16 04:50:37;;;;;;;14.90;5.40;;;;;;;9.47;100.00;102130.59;5094570;28;20359;-53
2021/10/16 04:53:05;;;;;;;17.20;4.60;;;;;;;9.41;100.00;102125.88;5092707;28;20273;-52
2021/10/16 04:55:34;;;;;;;21.67;4.97;;;;;;;9.32;100.00;102122.31;5092537;28;20089;-52
2021/10/16 04:58:00;;;;;;;16.35;5.35;;;;;;;9.27;100.00;102121.94;5092587;28;20385;-53
2021/10/16 05:00:35;;;;;;;16.60;5.40;;;;;;;9.28;100.00;102118.28;5076805;28;20057;-51
2021/10/16 05:03:03;;;;;;;24.37;6.47;;;;;;;9.31;100.00;102125.97;5059610;28;20040;-51
2021/10/16 05:05:29;;;;;;;16.10;4.43;;;;;;;9.27;100.00;102126.44;5075469;28;20280;-51
2021/10/16 05:07:58;;;;;;;15.43;4.85;;;;;;;9.16;100.00;102122.19;5092213;28;20051;-51
2021/10/16 05:10:24;;;;;;;13.68;5.72;;;;;;;9.28;100.00;102130.78;5075180;28;20480;-52
2021/10/16 05:12:49;;;;;;;21.45;5.90;;;;;;;9.27;100.00;102129.09;5092112;28;20036;-54
2021/10/16 05:15:16;;;;;;;18.55;4.97;;;;;;;9.27;100.00;102132.63;5092726;28;20032;-52
2021/10/16 05:17:41;;;;;;;13.73;4.67;;;;;;;9.23;100.00;102127.75;5093646;28;20347;-52
2021/10/16 05:20:15;;;;;;;19.55;4.88;;;;;;;9.31;100.00;102125.97;5076835;28;20508;-55
2021/10/16 05:22:48;;;;;;;19.88;6.00;;;;;;;9.31;100.00;102123.31;5076679;28;20040;-53
2021/10/16 05:25:15;;;;;;;19.10;4.67;;;;;;;9.35;100.00;102126.53;5093448;28;20446;-52
2021/10/16 05:27:41;;;;;;;21.10;5.75;;;;;;;9.36;100.00;102122.00;5093055;28;20020;-54
2021/10/16 05:30:08;;;;;;;17.33;6.05;;;;;;;9.36;100.00;102127.34;5091667;28;20078;-53
2021/10/16 05:32:36;;;;;;;26.73;6.07;;;;;;;9.37;100.00;102134.34;5092173;28;20035;-52
2021/10/16 05:35:03;;;;;;;26.55;7.88;;;;;;;9.27;100.00;102131.78;5091241;28;20040;-55
2021/10/16 05:37:29;;;;;;;24.55;6.57;;;;;;;9.32;100.00;102149.00;5093628;28;20050;-54
2021/10/16 05:39:55;;;;;;;;;;;;;;;9.36;100.00;102146.03;5093082;28;20043;-55
2021/10/16 05:42:21;;;;;;;24.63;8.70;;;;;;;9.37;100.00;102143.22;5092031;28;19981;-54
2021/10/16 05:44:49;;;;;;;25.02;8.30;;;;;;;9.40;100.00;102137.56;5092232;28;20365;-53
2021/10/16 05:47:16;;;;;;;31.08;9.38;;;;;;;9.43;100.00;102145.25;5092204;28;20043;-54
2021/10/16 05:49:43;;;;;;;27.63;6.93;;;;;;;9.39;100.00;102137.72;5091827;28;20457;-54
2021/10/16 05:52:10;;;;;;;20.53;5.83;;;;;;;9.38;100.00;102141.38;5092221;28;20347;-54
2021/10/16 05:54:35;;;;;;;20.70;6.53;;;;;;;9.39;100.00;102135.03;5091873;28;20368;-50
2021/10/16 05:57:01;;;;;;;22.65;6.85;;;;;;;9.36;100.00;102128.19;5074745;28;20059;-48
2021/10/16 05:59:28;;;;;;;24.30;6.13;;;;;;;9.32;100.00;102133.00;5091887;28;20038;-51
2021/10/16 06:01:54;;;;;;;18.63;4.85;;;;;;;9.35;100.00;102134.53;5091897;28;20024;-52
2021/10/16 06:04:20;;;;;;;23.10;6.32;;;;;;;9.36;100.00;102138.03;5091934;28;20431;-51
2021/10/16 06:06:45;;;;;;;14.93;5.77;;;;;;;9.35;100.00;102139.03;5092822;28;20036;-52
2021/10/16 06:09:11;;;;;;;14.13;5.80;;;;;;;9.38;100.00;102144.03;5091771;28;20032;-52
2021/10/16 06:11:36;;;;;;;25.97;6.67;;;;;;;9.36;100.00;102135.34;5091726;28;20139;-50
2021/10/16 06:14:02;;;;;;;20.10;6.37;;;;;;;9.32;100.00;102137.50;5091171;28;20028;-55
2021/10/16 06:16:28;;;;;;;18.20;5.65;;;;;;;9.36;100.00;102136.22;5090644;28;20283;-53
2021/10/16 06:18:54;;;;;;;18.15;6.20;;;;;;;9.36;100.00;102138.88;5091173;28;20032;-49
2021/10/16 06:21:20;;;;;;;17.80;6.13;;;;;;;9.33;100.00;102145.34;5091443;28;20036;-52
2021/10/16 06:23:46;;;;;;;19.52;6.30;;;;;;;9.36;100.00;102144.22;5090801;28;20280;-55
2021/10/16 06:26:16;;;;;;;15.35;5.60;;;;;;;9.37;100.00;102145.03;5091308;28;20032;-54
2021/10/16 06:28:41;;;;;;;21.17;5.60;;;;;;;9.37;100.00;102139.69;5092958;28;20058;-52
2021/10/16 06:31:07;;;;;;;19.85;5.78;;;;;;;9.38;100.00;102141.38;5074432;28;20158;-54
2021/10/16 06:33:33;;;;;;;16.35;5.50;;;;;;;9.38;100.00;102146.72;5075126;28;20044;-52
2021/10/16 06:36:00;;;;;;;13.60;5.28;;;;;;;9.38;100.00;102144.91;5074228;28;20028;-51
2021/10/16 06:38:40;;;;;;;22.17;5.80;;;;;;;9.41;100.00;102146.41;5091046;28;20043;-54
2021/10/16 06:41:06;;;;;;;18.67;5.65;;;;;;;9.43;100.00;102145.25;5091152;28;20032;-51
2021/10/16 06:43:47;;;;;;;15.10;5.50;;;;;;;9.42;100.00;102145.41;5091191;28;20040;-52
2021/10/16 06:46:24;;;;;;;15.32;5.10;;;;;;;9.53;100.00;102153.19;5094454;28;20446;-55
2021/10/16 06:49:22;;;;;;;19.65;4.60;;;;;;;9.44;100.00;102140.75;5081765;28;20098;-54
2021/10/16 06:51:48;;;;;;;14.73;5.28;;;;;;;9.52;100.00;102148.84;5095356;28;20036;-51
2021/10/16 06:54:14;;;;;;;23.75;6.80;;;;;;;9.59;100.00;102155.22;5094823;28;20373;-55
2021/10/16 06:56:40;;;;;;;15.10;5.20;;;;;;;9.57;100.00;102151.88;5095815;28;20032;-50
2021/10/16 06:59:06;;;;;;;24.73;6.38;;;;;;;9.63;100.00;102160.25;5095257;28;20080;-51
2021/10/16 07:01:31;;;;;;;19.33;6.70;;;;;;;9.63;100.00;102154.91;5094778;28;20036;-51
2021/10/16 07:04:02;;;;;;;17.60;5.57;;;;;;;9.68;100.00;102156.13;5095208;28;20059;-55
2021/10/16 07:06:28;;;;;;;17.25;5.38;;;;;;;9.69;100.00;102163.13;5094310;28;20127;-54
2021/10/16 07:08:54;;;;;;;19.05;6.10;;;;;;;9.82;100.00;102170.72;5078425;28;20351;-57
2021/10/16 07:11:20;;;;;;;23.47;7.70;;;;;;;9.88;100.00;102161.25;5096952;28;20039;-54
2021/10/16 07:13:45;;;;;;;26.60;8.33;;;;;;;9.97;100.00;102162.13;5096406;28;20586;-52
2021/10/16 07:16:11;;;;;;;19.45;8.00;;;;;;;10.00;100.00;102162.63;5094739;28;20071;-52
2021/10/16 07:18:38;;;;;;;21.17;8.07;;;;;;;10.01;100.00;102152.78;5077935;28;20024;-54
2021/10/16 07:21:04;;;;;;;24.67;7.37;;;;;;;10.08;100.00;102161.84;5097078;28;20040;-54
2021/10/16 07:23:30;;;;;;;30.45;9.27;;;;;;;10.03;100.00;102153.47;5095779;28;20253;-53
2021/10/16 07:25:57;;;;;;;24.25;7.93;;;;;;;10.13;100.00;102159.53;5094553;28;20068;-53
2021/10/16 07:28:23;;;;;;;32.60;8.97;;;;;;;10.21;100.00;102174.75;5094528;28;20024;-51
2021/10/16 07:30:50;;;;;;;31.70;9.52;;;;;;;10.27;100.00;102170.63;5095873;28;20292;-53
2021/10/16 07:33:15;;;;;;;26.25;9.38;;;;;;;10.37;100.00;102165.97;5094822;28;20024;-54
2021/10/16 07:35:42;;;;;;;21.02;8.77;;;;;;;10.47;100.00;102180.09;5096456;28;20042;-53
2021/10/16 07:38:09;;;;;;;29.77;9.07;;;;;;;10.52;100.00;102171.59;5094602;28;20123;-51
2021/10/16 07:40:34;;;;;;;27.63;9.75;;;;;;;10.58;100.00;102164.72;5095828;28;20272;-52
2021/10/16 07:43:00;;;;;;;23.98;9.02;;;;;;;10.58;100.00;102165.59;5077528;28;20024;-54
2021/10/16 07:45:27;;;;;;;27.80;9.73;;;;;;;10.57;100.00;102168.41;5079511;28;20036;-50
2021/10/16 07:47:53;;;;;;;23.93;9.33;;;;;;;10.54;100.00;102158.91;5096055;28;20269;-56
2021/10/16 07:50:19;;;;;;;21.20;8.88;;;;;;;10.61;100.00;102164.44;5094846;28;20283;-55
2021/10/16 07:52:44;;;;;;;23.58;6.47;;;;;;;10.65;100.00;102170.28;5095046;28;20107;-56
2021/10/16 07:55:10;;;;;;;25.70;8.30;;;;;;;10.71;100.00;102165.13;5078220;28;20044;-56
2021/10/16 07:57:35;;;;;;;24.50;6.57;;;;;;;10.76;100.00;102172.66;5095350;28;20054;-55
2021/10/16 08:00:01;;;;;;;25.30;6.03;;;;;;;10.85;100.00;102171.66;5077293;28;20287;-50
2021/10/16 08:02:27;;;;;;;24.88;5.65;;;;;;;10.74;100.00;102162.09;5093434;28;20077;-48
2021/10/16 08:04:52;;;;;;;26.23;6.20;;;;;;;10.78;100.00;102167.13;5094456;28;20088;-55
2021/10/16 08:07:18;;;;;;;19.90;6.03;;;;;;;10.86;100.00;102172.53;5098178;28;20454;-56
2021/10/16 08:09:45;;;;;;;16.80;5.80;;;;;;;10.97;100.00;102176.72;5079322;28;20036;-53
2021/10/16 08:12:11;;;;;;;25.60;6.53;;;;;;;11.03;100.00;102176.88;5078016;28;20276;-52
2021/10/16 08:14:36;;;;;;;22.92;7.72;;;;;;;11.05;100.00;102177.53;5094835;28;20118;-53
2021/10/16 08:17:02;;;;;;;20.75;8.07;;;;;;;11.07;100.00;102179.22;5094752;28;20116;-53
2021/10/16 08:19:27;;;;;;;20.98;7.85;;;;;;;11.04;100.00;102180.41;5093545;28;20477;-53
2021/10/16 08:21:54;;;;;;;24.95;6.80;;;;;;;10.94;100.00;102175.19;5060882;28;20058;-52
2021/10/16 08:24:19;;;;;;;29.20;9.55;;;;;;;11.02;100.00;102179.72;5093742;28;20400;-50
2021/10/16 08:26:45;;;;;;;28.77;9.48;;;;;;;11.03;100.00;102182.22;5075901;28;20036;-49
2021/10/16 08:29:11;;;;;;;27.45;8.82;;;;;;;11.04;100.00;102183.06;5093344;28;20107;-53
2021/10/16 08:31:36;;;;;;;25.27;8.83;;;;;;;11.13;100.00;102184.75;5092763;28;20124;-54
2021/10/16 08:34:02;;;;;;;20.83;8.05;;;;;;;11.09;100.00;102190.63;5093515;28;20260;-56
2021/10/16 08:36:28;;;;;;;30.30;8.60;;;;;;;11.17;100.00;102179.91;5093714;28;20481;-54
2021/10/16 08:38:53;;;;;;;28.50;8.23;;;;;;;11.23;100.00;102181.91;5093145;28;20052;-54
2021/10/16 08:41:19;;;;;;;34.50;10.57;;;;;;;11.24;100.00;102186.25;5094287;28;20453;-54
2021/10/16 08:43:44;;;;;;;30.17;9.73;;;;;;;11.30;100.00;102184.75;5077182;28;20272;-56
2021/10/16 08:46:12;;;;;;;30.98;9.30;;;;;;;11.34;100.00;102183.41;5077714;28;20047;-53
2021/10/16 08:48:41;;;;;;;23.97;7.47;;;;;;;11.40;100.00;102188.09;5096161;28;20095;-53
2021/10/16 08:51:08;;;;;;;26.67;7.43;;;;;;;11.32;100.00;102185.44;5094120;28;20292;-49
2021/10/16 08:53:33;;;;;;;;;;;;;;;11.41;100.00;102189.78;5095476;28;20309;-52
2021/10/16 08:56:04;;;;;;;19.03;5.40;;;;;;;11.42;100.00;102182.59;5076485;28;20373;-56
2021/10/16 08:58:31;;;;;;;14.90;4.47;;;;;;;11.53;100.00;102190.28;5094543;28;20028;-49
2021/10/16 09:00:59;;;;;;;13.47;3.87;;;;;;;11.56;100.00;102195.31;5093796;28;20270;-54
2021/10/16 09:03:51;;;;;;;18.33;5.17;;;;;;;11.48;100.00;102196.16;5093799;28;20308;-49
2021/10/16 09:06:27;;;;;;;17.93;4.40;;;;;;;11.43;100.00;102200.34;5093955;28;20271;-51
2021/10/16 09:09:00;;;;;;;19.13;4.78;;;;;;;11.47;100.00;102196.31;5093418;28;20267;-51
2021/10/16 09:11:35;;;;;;;14.03;4.43;;;;;;;11.52;100.00;102202.00;5093765;28;20027;-53
2021/10/16 09:14:07;;;;;;;24.77;3.97;;;;;;;11.43;100.00;102200.34;5094301;28;20839;-51
2021/10/16 09:16:49;;;;;;;13.93;3.97;;;;;;;11.44;100.00;102202.84;5093532;28;20309;-53
2021/10/16 09:19:17;;;;;;;15.03;4.03;;;;;;;11.51;100.00;102205.69;5091974;28;20292;-52
2021/10/16 09:21:42;;;;;;;21.50;4.40;;;;;;;11.52;100.00;102209.22;5093040;28;20752;-50
2021/10/16 09:24:18;;;;;;;13.60;3.67;;;;;;;11.57;100.00;102209.53;5094267;28;20257;-53
2021/10/16 09:26:46;;;;;;;16.20;4.53;;;;;;;11.47;100.00;102210.56;5076843;28;20031;-52
2021/10/16 09:29:13;;;;;;;17.00;5.40;;;;;;;11.55;100.00;102215.09;5093582;28;20252;-54
2021/10/16 09:31:45;;;;;;;19.90;4.47;;;;;;;11.52;100.00;102210.03;5093647;28;20287;-54
2021/10/16 09:34:11;;;;;;;21.67;5.27;;;;;;;11.43;100.00;102213.72;5093773;28;20314;-52
2021/10/16 09:36:38;;;;;;;14.52;4.63;;;;;;;11.41;100.00;102202.34;5093269;28;20252;-53
2021/10/16 09:39:06;;;;;;;18.00;4.80;;;;;;;11.50;100.00;102200.50;5093178;28;20051;-49
2021/10/16 09:41:35;;;;;;;26.93;5.50;;;;;;;11.51;100.00;102208.34;5093045;28;20287;-53
2021/10/16 09:44:03;;;;;;;17.33;5.80;;;;;;;11.50;100.00;102214.72;5093405;28;20265;-51
2021/10/16 09:46:29;;;;;;;20.63;5.30;;;;;;;11.45;100.00;102201.84;5093639;28;20274;-53
2021/10/16 09:49:04;;;;;;;17.23;4.97;;;;;;;11.56;100.00;102203.34;5091916;28;20332;-54
2021/10/16 09:51:30;;;;;;;19.87;3.87;;;;;;;11.48;100.00;102192.63;5092988;28;20028;-51
2021/10/16 09:54:06;;;;;;;26.47;5.07;;;;;;;11.70;100.00;102192.94;5091970;28;20256;-54
2021/10/16 09:56:36;;;;;;;22.20;5.10;;;;;;;11.71;100.00;102197.28;5075093;28;20389;-53
2021/10/16 09:59:02;;;;;;;20.97;5.20;;;;;;;11.93;100.00;102193.09;5091717;28;20056;-51
2021/10/16 10:01:29;;;;;;;36.22;4.82;;;;;;;12.14;100.00;102192.53;5091529;28;20343;-51
2021/10/16 10:03:56;;;;;;;25.87;5.17;;;;;;;12.31;100.00;102195.16;5093490;28;20499;-50
2021/10/16 10:06:22;;;;;;;27.80;4.67;;;;;;;12.40;100.00;102191.44;5092858;28;20726;-48
2021/10/16 10:08:48;;;;;;;20.27;4.68;;;;;;;12.76;100.00;102196.28;5092866;28;20267;-50
2021/10/16 10:11:16;;;;;;;18.10;5.20;;;;;;;12.77;100.00;102203.34;5092883;28;20042;-53
2021/10/16 10:13:41;;;;;;;20.53;4.57;;;;;;;12.80;100.00;102198.63;5091351;28;20042;-50
2021/10/16 10:16:08;;;;;;;17.30;5.60;;;;;;;12.93;100.00;102203.41;5092730;28;20268;-50
2021/10/16 10:21:20;;;;;;;20.53;5.43;;;;;;;13.02;100.00;102200.50;5096118;28;20018;-53
2021/10/16 10:23:54;;;;;;;19.63;5.10;;;;;;;13.17;100.00;102203.25;5096887;28;20252;-49
2021/10/16 10:26:25;;;;;;;17.90;6.27;;;;;;;13.24;100.00;102200.69;5095905;28;20308;-50
2021/10/16 10:29:13;;;;;;;16.17;4.40;;;;;;;13.50;100.00;102195.97;5096850;28;20268;-50
2021/10/16 10:31:44;;;;;;;15.93;4.07;;;;;;;13.58;100.00;102198.59;5095639;28;20273;-51
2021/10/16 10:34:34;;;;;;;25.60;5.63;;;;;;;13.78;100.00;102201.56;5095756;28;20036;-55
2021/10/16 10:37:04;;;;;;;18.03;4.93;;;;;;;13.98;100.00;102201.88;5097386;28;20337;-51
2021/10/16 10:39:30;;;;;;;20.07;4.70;;;;;;;14.07;100.00;102202.63;5095050;28;20637;-53
2021/10/16 10:41:56;;;;;;;31.10;8.13;;;;;;;14.00;100.00;102199.84;5096351;28;20273;-52
2021/10/16 10:44:40;;;;;;;25.35;5.43;;;;;;;14.21;100.00;102206.34;5096269;28;20043;-53
2021/10/16 10:47:28;;;;;;;18.73;5.67;;;;;;;14.18;100.00;102198.63;5095929;28;20039;-53
2021/10/16 10:49:56;;;;;;;20.47;6.53;;;;;;;14.27;100.00;102204.75;5096121;28;20283;-53
2021/10/16 10:52:23;;;;;;;20.20;7.73;;;;;;;14.25;100.00;102199.56;5094846;28;20249;-52
2021/10/16 10:55:01;;;;;;;20.13;5.60;;;;;;;14.20;100.00;102199.28;5095503;28;20640;-50
2021/10/16 10:57:42;;;;;;;15.63;4.03;;;;;;;14.30;100.00;102205.22;5096302;28;20260;-49
2021/10/16 11:00:10;;;;;;;17.97;4.43;;;;;;;14.59;100.00;102195.41;5096237;28;20261;-49
2021/10/16 11:02:36;;;;;;;17.40;4.20;;;;;;;14.73;100.00;102191.03;5094768;28;20283;-49
2021/10/16 11:05:04;;;;;;;17.00;4.80;;;;;;;15.00;100.00;102183.28;5096013;28;20272;-51
2021/10/16 11:07:31;;;;;;;21.77;4.53;;;;;;;14.93;100.00;102186.91;5095633;28;20479;-53
2021/10/16 11:09:57;;;;;;;30.37;6.57;;;;;;;14.86;100.00;102186.84;5095908;28;20288;-50
2021/10/16 11:12:49;;;;;;;20.50;4.83;;;;;;;14.84;100.00;102188.88;5094552;28;20016;-51
2021/10/16 11:15:15;;;;;;;11.23;3.07;;;;;;;14.81;100.00;102181.19;5090781;28;20533;-52
2021/10/16 11:17:45;;;;;;;18.25;3.20;;;;;;;14.59;100.00;102179.25;5094474;28;20340;-53
2021/10/16 11:20:14;;;;;;;16.60;4.53;;;;;;;14.65;100.00;102182.22;5094677;28;20453;-50